Time;durP1;ratioP1;P1;durP2;ratioP2;P2;SDS_P1;SDS_P2;PMS_P1;PMS_P2;Temp;Humidity;BMP_temperature;BMP_pressure;BME280_temperature;BME280_humidity;BME280_pressure;Samples;Min_cycle;Max_cycle;Signal;HPM_P1;HPM_P2
2021/12/20 00:00:14;;;;;;;21.83;7.78;;;;;;;4.88;100.00;102794.13;5113542;28;20038;-86
2021/12/20 00:02:41;;;;;;;22.48;8.00;;;;;;;4.86;100.00;102800.94;5092947;28;20028;-86
2021/12/20 00:05:07;;;;;;;18.35;8.05;;;;;;;4.91;100.00;102801.13;5094083;28;20056;-86
2021/12/20 00:07:32;;;;;;;21.52;7.68;;;;;;;4.88;100.00;102799.31;5094214;28;20028;-85
2021/12/20 00:09:57;;;;;;;16.48;8.00;;;;;;;4.87;100.00;102787.22;5093248;28;20069;-86
2021/12/20 00:12:23;;;;;;;16.48;7.57;;;;;;;4.87;100.00;102787.22;5094145;28;20051;-86
2021/12/20 00:14:48;;;;;;;18.00;7.90;;;;;;;4.85;100.00;102795.75;5100256;28;20046;-86
2021/12/20 00:17:13;;;;;;;16.10;7.63;;;;;;;4.84;100.00;102787.13;5113402;28;20076;-86
2021/12/20 00:19:39;;;;;;;21.13;8.20;;;;;;;4.88;100.00;102798.44;5112984;28;20020;-86
2021/12/20 00:22:04;;;;;;;16.23;7.65;;;;;;;4.83;100.00;102780.19;5114104;28;20032;-86
2021/12/20 00:24:29;;;;;;;19.33;8.35;;;;;;;4.89;100.00;102800.19;5113544;28;20080;-86
2021/12/20 00:26:54;;;;;;;31.10;8.57;;;;;;;4.87;100.00;102792.38;5113898;28;20079;-86
2021/12/20 00:29:20;;;;;;;18.05;7.15;;;;;;;4.87;100.00;102797.56;5112113;28;20020;-86
2021/12/20 00:31:45;;;;;;;20.02;7.70;;;;;;;4.84;100.00;102796.56;5113544;28;20038;-85
2021/12/20 00:34:10;;;;;;;19.08;7.63;;;;;;;4.86;100.00;102789.75;5114063;28;20091;-86
2021/12/20 00:36:36;;;;;;;21.70;7.85;;;;;;;4.88;100.00;102788.09;5112865;28;20035;-86
2021/12/20 00:41:45;;;;;;;21.40;7.65;;;;;;;4.86;100.00;102788.03;5113493;28;20043;-86
2021/12/20 00:44:11;;;;;;;22.17;7.82;;;;;;;4.78;100.00;102771.44;5111871;28;20031;-86
2021/12/20 00:46:36;;;;;;;18.75;7.38;;;;;;;4.83;100.00;102779.31;5112444;28;20038;-85
2021/12/20 00:49:01;;;;;;;22.45;7.07;;;;;;;4.81;100.00;102787.03;5113640;28;20030;-85
2021/12/20 00:51:27;;;;;;;17.08;7.28;;;;;;;4.78;100.00;102781.75;5112871;28;20024;-85
2021/12/20 00:53:52;;;;;;;24.02;6.60;;;;;;;4.79;100.00;102777.47;5113470;28;20483;-86
2021/12/20 00:56:17;;;;;;;22.23;7.90;;;;;;;4.78;100.00;102783.47;5113569;28;20024;-86
2021/12/20 00:58:42;;;;;;;24.48;7.28;;;;;;;4.74;100.00;102774.75;5110950;28;20024;-86
2021/12/20 01:01:10;;;;;;;19.02;6.88;;;;;;;4.76;100.00;102778.25;5113266;28;20505;-86
2021/12/20 01:03:36;;;;;;;20.73;7.85;;;;;;;4.79;100.00;102788.69;5113501;28;20027;-86
2021/12/20 01:06:02;;;;;;;16.02;7.05;;;;;;;4.78;100.00;102770.56;5112869;28;20124;-86
2021/12/20 01:08:34;;;;;;;16.42;7.25;;;;;;;4.79;100.00;102773.16;5112300;28;20032;-85
2021/12/20 01:11:01;;;;;;;22.85;7.45;;;;;;;4.74;100.00;102772.16;5113154;27;20024;-86
2021/12/20 01:13:30;;;;;;;21.27;6.72;;;;;;;4.79;100.00;102782.63;5112318;28;20068;-86
2021/12/20 01:15:58;;;;;;;18.95;5.88;;;;;;;4.77;100.00;102782.56;5111574;28;20441;-86
2021/12/20 01:18:24;;;;;;;16.33;5.60;;;;;;;4.72;100.00;102784.16;5112695;28;20019;-86
2021/12/20 01:20:49;;;;;;;14.43;5.40;;;;;;;4.76;100.00;102792.88;5112948;28;20035;-86
2021/12/20 01:23:16;;;;;;;16.45;5.65;;;;;;;4.75;100.00;102792.00;5113150;28;20436;-86
2021/12/20 01:25:41;;;;;;;18.23;4.97;;;;;;;4.69;100.00;102787.50;5111733;28;20034;-85
2021/12/20 01:28:08;;;;;;;16.77;4.82;;;;;;;4.61;100.00;102765.72;5112615;28;20051;-86
2021/12/20 01:30:34;;;;;;;15.07;4.28;;;;;;;4.67;100.00;102790.84;5106704;28;20402;-86
2021/12/20 01:32:59;;;;;;;13.27;4.30;;;;;;;4.63;100.00;102781.25;5091519;28;20558;-86
2021/12/20 01:35:26;;;;;;;16.60;3.70;;;;;;;4.64;100.00;102778.75;5092421;28;20095;-86
2021/12/20 01:37:54;;;;;;;19.80;3.70;;;;;;;4.60;100.00;102782.03;5103158;28;20112;-86
2021/12/20 01:40:21;;;;;;;20.65;4.13;;;;;;;4.59;100.00;102776.84;5112154;28;20028;-85
2021/12/20 01:42:47;;;;;;;14.40;3.35;;;;;;;4.60;100.00;102779.44;5111900;28;20069;-86
2021/12/20 01:45:18;;;;;;;20.67;3.22;;;;;;;4.59;100.00;102779.41;5112942;28;20069;-86
2021/12/20 01:47:49;;;;;;;20.38;3.33;;;;;;;4.59;100.00;102782.00;5111475;28;20029;-85
2021/12/20 01:50:36;;;;;;;22.75;3.67;;;;;;;4.55;100.00;102764.66;5112667;28;20031;-86
2021/12/20 01:53:01;;;;;;;14.35;2.85;;;;;;;4.55;100.00;102769.81;5105899;28;20069;-85
2021/12/20 01:55:26;;;;;;;17.83;3.20;;;;;;;4.57;100.00;102775.91;5091184;28;20032;-86
2021/12/20 01:57:52;;;;;;;19.85;3.05;;;;;;;4.54;100.00;102770.63;5091602;28;20034;-86
2021/12/20 02:00:22;;;;;;;16.95;3.47;;;;;;;4.52;100.00;102777.47;5092207;28;20024;-86
2021/12/20 02:02:52;;;;;;;16.83;3.00;;;;;;;4.55;100.00;102772.41;5090996;28;20024;-85
2021/12/20 02:05:23;;;;;;;11.07;3.42;;;;;;;4.53;100.00;102763.72;5091764;28;20036;-86
2021/12/20 02:10:14;;;;;;;16.95;3.47;;;;;;;4.55;100.00;102757.78;5091961;28;20475;-86
2021/12/20 02:12:39;;;;;;;14.90;3.15;;;;;;;4.55;100.00;102773.28;5099554;28;20024;-85
2021/12/20 02:15:05;;;;;;;21.67;3.38;;;;;;;4.53;100.00;102771.47;5111724;28;20030;-85
2021/12/20 02:17:31;;;;;;;21.67;3.88;;;;;;;4.52;100.00;102756.81;5112068;28;20084;-86
2021/12/20 02:19:59;;;;;;;17.02;2.95;;;;;;;4.50;100.00;102774.81;5111837;28;20097;-86
2021/12/20 02:22:25;;;;;;;17.63;3.17;;;;;;;4.52;100.00;102769.72;5111401;28;20352;-86
2021/12/20 02:24:50;;;;;;;23.15;3.47;;;;;;;4.51;100.00;102763.66;5112103;28;20026;-85
2021/12/20 02:27:16;;;;;;;16.20;2.80;;;;;;;4.46;100.00;102766.09;5103206;28;20552;-86
2021/12/20 02:30:00;;;;;;;16.40;3.00;;;;;;;4.51;100.00;102773.13;5090578;28;20028;-86
2021/12/20 02:37:55;;;;;;;14.52;3.03;;;;;;;4.49;100.00;102754.13;5090743;28;20112;-86
2021/12/20 02:40:21;;;;;;;18.10;3.30;;;;;;;4.48;100.00;102755.84;5091893;28;20024;-86
2021/12/20 02:42:48;;;;;;;21.25;3.38;;;;;;;4.41;100.00;102752.19;5104853;28;20040;-86
2021/12/20 02:45:15;;;;;;;23.40;3.70;;;;;;;4.42;100.00;102759.09;5111967;28;20323;-85
2021/12/20 02:47:46;;;;;;;18.40;2.50;;;;;;;4.42;100.00;102765.97;5111621;28;20020;-85
2021/12/20 02:50:13;;;;;;;25.83;3.60;;;;;;;4.46;100.00;102760.94;5111255;28;20045;-86
2021/12/20 02:52:39;;;;;;;17.30;3.45;;;;;;;4.46;100.00;102760.94;5111534;28;20032;-85
2021/12/20 02:55:05;;;;;;;19.65;2.92;;;;;;;4.47;100.00;102760.09;5111859;28;20034;-85
2021/12/20 02:57:34;;;;;;;17.45;2.90;;;;;;;4.43;100.00;102755.66;5109337;28;20364;-85
2021/12/20 02:59:59;;;;;;;15.38;2.92;;;;;;;4.41;100.00;102759.94;5111755;28;20022;-86
2021/12/20 03:02:25;;;;;;;16.15;3.03;;;;;;;4.40;100.00;102754.69;5111732;28;20023;-86
2021/12/20 03:04:51;;;;;;;20.00;3.63;;;;;;;4.40;100.00;102763.31;5111080;28;20028;-86
2021/12/20 03:07:22;;;;;;;19.17;3.38;;;;;;;4.34;100.00;102759.66;5111831;28;20027;-86
2021/12/20 03:09:53;;;;;;;20.05;3.17;;;;;;;4.32;100.00;102743.25;5112373;28;20034;-86
2021/12/20 03:12:19;;;;;;;21.85;3.67;;;;;;;4.40;100.00;102755.56;5113626;28;20036;-86
2021/12/20 03:14:47;;;;;;;20.25;3.03;;;;;;;4.30;100.00;102744.91;5114093;28;20054;-86
2021/12/20 03:17:12;;;;;;;15.70;3.33;;;;;;;4.40;100.00;102763.31;5115791;28;20024;-86
2021/12/20 03:19:39;;;;;;;20.42;3.08;;;;;;;4.42;100.00;102764.25;5114447;27;20050;-85
2021/12/20 03:22:05;;;;;;;14.35;2.80;;;;;;;4.39;100.00;102756.41;5115380;28;20027;-86
2021/12/20 03:24:30;;;;;;;22.48;3.17;;;;;;;4.39;100.00;102748.66;5115238;28;20035;-86
2021/12/20 03:26:56;;;;;;;16.55;2.92;;;;;;;4.37;100.00;102739.09;5103483;28;20060;-85
2021/12/20 03:29:21;;;;;;;19.02;3.40;;;;;;;4.37;100.00;102745.13;5095052;28;20032;-85
2021/12/20 03:31:47;;;;;;;15.60;3.00;;;;;;;4.42;100.00;102760.81;5094612;28;20028;-86
2021/12/20 03:34:14;;;;;;;18.48;3.20;;;;;;;4.39;100.00;102753.81;5093957;28;20020;-86
2021/12/20 03:36:39;;;;;;;18.50;2.65;;;;;;;4.42;100.00;102768.56;5094302;28;20476;-86
2021/12/20 03:39:07;;;;;;;16.25;3.45;;;;;;;4.42;100.00;102766.84;5094005;28;20035;-86
2021/12/20 03:41:33;;;;;;;22.35;3.88;;;;;;;4.40;100.00;102762.44;5102661;28;20038;-86
2021/12/20 03:43:58;;;;;;;18.60;3.85;;;;;;;4.36;100.00;102750.25;5095623;28;20032;-85
2021/12/20 03:46:25;;;;;;;17.63;3.00;;;;;;;4.39;100.00;102761.56;5096599;28;20523;-85
2021/12/20 03:48:50;;;;;;;18.75;3.08;;;;;;;4.40;100.00;102765.91;5114861;28;20023;-85
2021/12/20 03:51:16;;;;;;;15.48;2.85;;;;;;;4.39;100.00;102761.56;5114814;28;20105;-85
2021/12/20 03:53:42;;;;;;;17.80;2.90;;;;;;;4.35;100.00;102754.56;5113539;28;20027;-86
2021/12/20 03:56:07;;;;;;;13.18;2.70;;;;;;;4.36;100.00;102761.47;5114744;28;20032;-85
2021/12/20 03:58:33;;;;;;;16.85;2.80;;;;;;;4.35;100.00;102757.13;5114479;28;20040;-85
2021/12/20 04:01:03;;;;;;;20.25;3.28;;;;;;;4.37;100.00;102757.19;5110272;28;20040;-86
2021/12/20 04:03:31;;;;;;;14.40;3.90;;;;;;;4.33;100.00;102766.53;5094127;28;20035;-85
2021/12/20 04:05:56;;;;;;;21.25;3.72;;;;;;;4.32;100.00;102758.75;5093837;28;20767;-85
2021/12/20 04:08:22;;;;;;;20.40;3.25;;;;;;;4.32;100.00;102769.94;5093414;28;20125;-86
2021/12/20 04:10:47;;;;;;;20.40;4.97;;;;;;;4.30;100.00;102761.25;5093810;28;20034;-86
2021/12/20 04:13:12;;;;;;;22.95;3.20;;;;;;;4.31;100.00;102762.13;5094284;28;20020;-86
2021/12/20 04:15:38;;;;;;;22.92;3.67;;;;;;;4.31;100.00;102755.25;5093632;28;20027;-85
2021/12/20 04:18:04;;;;;;;24.45;3.78;;;;;;;4.29;100.00;102754.34;5114441;28;20098;-85
2021/12/20 04:20:30;;;;;;;20.30;2.88;;;;;;;4.29;100.00;102759.53;5113794;28;20039;-85
2021/12/20 04:22:55;;;;;;;19.83;3.00;;;;;;;4.22;100.00;102742.94;5113137;28;20023;-86
2021/12/20 04:25:20;;;;;;;16.23;3.50;;;;;;;4.27;100.00;102757.69;5114951;28;21025;-85
2021/12/20 04:27:46;;;;;;;18.27;3.22;;;;;;;4.30;100.00;102765.56;5112328;28;20043;-87
2021/12/20 04:30:12;;;;;;;21.02;3.72;;;;;;;4.27;100.00;102763.75;5113538;28;20040;-85
2021/12/20 04:32:40;;;;;;;19.75;3.45;;;;;;;4.28;100.00;102757.75;5113730;28;20386;-85
2021/12/20 04:35:06;;;;;;;17.98;2.97;;;;;;;4.31;100.00;102768.16;5114114;28;20030;-85
2021/12/20 04:37:32;;;;;;;24.52;3.45;;;;;;;4.30;100.00;102761.25;5112931;28;20059;-85
2021/12/20 04:39:58;;;;;;;18.98;3.05;;;;;;;4.31;100.00;102757.84;5113886;28;20059;-86
2021/12/20 04:42:24;;;;;;;16.20;3.17;;;;;;;4.29;100.00;102754.34;5094598;28;20024;-85
2021/12/20 04:44:49;;;;;;;22.40;3.22;;;;;;;4.30;100.00;102750.06;5093097;28;20444;-86
2021/12/20 04:47:14;;;;;;;28.20;3.33;;;;;;;4.26;100.00;102748.22;5093507;28;20091;-85
2021/12/20 04:49:39;;;;;;;19.23;3.17;;;;;;;4.27;100.00;102745.66;5092031;28;20537;-85
2021/12/20 04:52:05;;;;;;;22.75;3.17;;;;;;;4.28;100.00;102764.63;5093267;28;20024;-85
2021/12/20 04:54:30;;;;;;;20.17;2.83;;;;;;;4.25;100.00;102755.09;5093011;28;20452;-85
2021/12/20 04:56:55;;;;;;;17.42;3.70;;;;;;;4.21;100.00;102754.09;5107778;28;20050;-86
2021/12/20 04:59:21;;;;;;;17.38;3.28;;;;;;;4.27;100.00;102758.56;5113844;28;20108;-85
2021/12/20 05:01:46;;;;;;;22.92;3.50;;;;;;;4.26;100.00;102750.78;5113103;28;20038;-86
2021/12/20 05:04:11;;;;;;;17.83;3.50;;;;;;;4.26;100.00;102759.41;5112845;28;20103;-85
2021/12/20 05:06:37;;;;;;;20.00;3.83;;;;;;;4.27;100.00;102762.88;5112936;28;20424;-85
2021/12/20 05:09:04;;;;;;;18.35;3.70;;;;;;;4.24;100.00;102755.88;5113807;28;20031;-85
2021/12/20 05:11:31;;;;;;;14.25;3.20;;;;;;;4.17;100.00;102746.19;5111352;28;20406;-86
2021/12/20 05:13:56;;;;;;;21.40;3.75;;;;;;;4.19;100.00;102754.88;5113215;27;20034;-86
2021/12/20 05:16:22;;;;;;;24.35;3.42;;;;;;;4.18;100.00;102758.25;5113453;28;20028;-86
2021/12/20 05:18:47;;;;;;;19.48;3.38;;;;;;;4.19;100.00;102757.47;5111970;28;20024;-85
2021/12/20 05:21:13;;;;;;;19.42;2.80;;;;;;;4.18;100.00;102766.88;5112924;28;20114;-86
2021/12/20 05:23:38;;;;;;;21.23;3.85;;;;;;;4.17;100.00;102765.13;5112826;28;20016;-85
2021/12/20 05:26:05;;;;;;;23.30;3.67;;;;;;;4.10;100.00;102746.81;5111123;28;20045;-86
2021/12/20 05:28:30;;;;;;;23.35;4.07;;;;;;;4.14;100.00;102764.16;5112711;28;20177;-85
2021/12/20 05:30:55;;;;;;;23.10;3.72;;;;;;;4.17;100.00;102756.53;5110680;28;20577;-85
2021/12/20 05:33:21;;;;;;;15.07;3.30;;;;;;;4.15;100.00;102760.75;5111712;28;20019;-85
2021/12/20 05:35:47;;;;;;;15.70;2.90;;;;;;;4.18;100.00;102761.72;5112369;28;20035;-85
2021/12/20 05:38:12;;;;;;;25.40;3.60;;;;;;;4.12;100.00;102758.06;5113091;28;20069;-85
2021/12/20 05:40:38;;;;;;;17.85;3.47;;;;;;;4.14;100.00;102761.56;5111646;28;20024;-86
2021/12/20 05:43:04;;;;;;;14.00;2.80;;;;;;;4.16;100.00;102765.97;5112865;28;20024;-85
2021/12/20 05:45:29;;;;;;;27.63;3.75;;;;;;;4.13;100.00;102754.66;5107793;28;20081;-85
2021/12/20 05:47:55;;;;;;;24.58;3.30;;;;;;;4.14;100.00;102769.31;5096998;28;20027;-85
2021/12/20 05:50:21;;;;;;;22.60;4.10;;;;;;;4.14;100.00;102769.31;5112633;28;20031;-85
2021/12/20 05:52:47;;;;;;;16.60;3.42;;;;;;;4.12;100.00;102765.81;5111533;28;20046;-85
2021/12/20 05:55:13;;;;;;;23.45;3.40;;;;;;;4.10;100.00;102757.16;5112494;28;20367;-85
2021/12/20 05:57:39;;;;;;;18.33;3.30;;;;;;;4.16;100.00;102762.53;5111928;28;20356;-85
2021/12/20 06:00:08;;;;;;;27.90;4.72;;;;;;;4.17;100.00;102761.69;5111858;28;20023;-85
2021/12/20 06:02:33;;;;;;;13.48;2.67;;;;;;;4.14;100.00;102764.16;5110703;28;20043;-85
2021/12/20 06:04:58;;;;;;;17.50;2.95;;;;;;;4.15;100.00;102764.22;5112132;28;20027;-86
2021/12/20 06:07:24;;;;;;;18.67;3.63;;;;;;;4.14;100.00;102757.28;5111987;28;20080;-85
2021/12/20 06:09:49;;;;;;;24.63;3.20;;;;;;;4.13;100.00;102763.28;5112260;28;20027;-85
2021/12/20 06:12:15;;;;;;;19.52;3.28;;;;;;;4.18;100.00;102766.88;5112328;28;20421;-85
2021/12/20 06:14:41;;;;;;;24.30;3.45;;;;;;;4.15;100.00;102771.97;5111008;28;20540;-85
2021/12/20 06:17:07;;;;;;;19.25;3.95;;;;;;;4.14;100.00;102771.91;5110963;28;20084;-85
2021/12/20 06:19:33;;;;;;;18.48;3.33;;;;;;;4.14;100.00;102775.34;5112069;28;20386;-86
2021/12/20 06:21:58;;;;;;;14.02;3.63;;;;;;;4.12;100.00;102776.13;5110930;28;20028;-86
2021/12/20 06:24:23;;;;;;;26.75;4.13;;;;;;;4.09;100.00;102770.88;5112475;28;20023;-85
2021/12/20 06:26:50;;;;;;;20.92;3.55;;;;;;;4.09;100.00;102770.88;5111492;28;20097;-85
2021/12/20 06:29:16;;;;;;;20.58;3.75;;;;;;;4.08;100.00;102771.69;5111533;28;20020;-86
2021/12/20 06:31:41;;;;;;;25.02;3.50;;;;;;;4.06;100.00;102770.78;5110265;28;20030;-85
2021/12/20 06:34:07;;;;;;;22.45;4.03;;;;;;;4.08;100.00;102779.44;5111817;28;20039;-85
2021/12/20 06:36:32;;;;;;;19.80;3.05;;;;;;;4.10;100.00;102783.84;5111125;28;20114;-85
2021/12/20 06:38:58;;;;;;;19.10;3.13;;;;;;;4.07;100.00;102777.69;5111833;28;20053;-86
2021/12/20 06:41:24;;;;;;;23.92;3.97;;;;;;;4.09;100.00;102776.06;5112297;28;20046;-85
2021/12/20 06:43:49;;;;;;;25.15;3.90;;;;;;;4.06;99.90;102781.09;5112145;28;20106;-85
2021/12/20 06:46:17;;;;;;;22.23;3.40;;;;;;;4.09;97.69;102789.84;5114893;28;20104;-85
2021/12/20 06:48:43;;;;;;;22.77;3.33;;;;;;;4.12;97.08;102789.03;5115592;27;20031;-85
2021/12/20 06:51:09;;;;;;;19.08;3.03;;;;;;;4.10;96.16;102778.66;5113429;28;20050;-85
2021/12/20 06:53:34;;;;;;;20.23;3.30;;;;;;;4.15;96.76;102796.88;5114536;28;20038;-85
2021/12/20 06:56:00;;;;;;;18.85;3.50;;;;;;;4.14;96.50;102797.72;5115156;28;20540;-85
2021/12/20 06:58:25;;;;;;;22.92;4.13;;;;;;;4.10;97.66;102788.13;5115606;28;20044;-85
2021/12/20 07:00:52;;;;;;;25.98;3.72;;;;;;;4.12;96.60;102792.53;5115784;28;20019;-85
2021/12/20 07:03:18;;;;;;;19.48;3.10;;;;;;;4.14;98.59;102795.13;5115069;28;20028;-85
2021/12/20 07:05:44;;;;;;;16.77;2.80;;;;;;;4.12;96.78;102792.53;5115542;28;20076;-85
2021/12/20 07:08:09;;;;;;;14.70;2.80;;;;;;;4.10;96.39;102796.75;5112326;28;20024;-85
2021/12/20 07:10:34;;;;;;;17.27;2.80;;;;;;;4.09;96.97;102792.41;5094387;28;20468;-85
2021/12/20 07:13:00;;;;;;;17.15;3.28;;;;;;;4.10;96.74;102793.28;5095017;28;20028;-85
2021/12/20 07:15:26;;;;;;;19.42;3.92;;;;;;;4.07;97.34;102794.06;5095030;28;20480;-85
2021/12/20 07:17:51;;;;;;;19.13;3.53;;;;;;;4.10;98.16;102798.44;5094085;28;20069;-85
2021/12/20 07:20:17;;;;;;;16.02;2.95;;;;;;;4.09;97.71;102809.59;5095314;28;20039;-85
2021/12/20 07:22:42;;;;;;;17.17;3.70;;;;;;;3.98;98.45;102783.41;5094084;28;20035;-85
2021/12/20 07:25:08;;;;;;;29.95;4.43;;;;;;;4.05;96.53;102794.81;5094450;28;20081;-85
2021/12/20 07:27:33;;;;;;;12.65;2.95;;;;;;;4.06;98.35;102796.59;5094701;28;20052;-85
2021/12/20 07:29:59;;;;;;;21.48;4.40;;;;;;;4.06;97.25;102810.38;5094783;28;20077;-85
2021/12/20 07:32:24;;;;;;;20.48;3.78;;;;;;;4.06;97.78;102804.34;5093975;28;20034;-85
2021/12/20 07:34:50;;;;;;;15.45;3.67;;;;;;;4.06;98.58;102802.63;5094582;28;20016;-85
2021/12/20 07:37:16;;;;;;;24.35;3.22;;;;;;;4.07;97.93;102800.91;5094894;28;20024;-84
2021/12/20 07:39:42;;;;;;;20.77;3.33;;;;;;;4.05;97.92;102803.44;5093221;28;20081;-85
2021/12/20 07:42:08;;;;;;;25.83;3.42;;;;;;;4.05;99.59;102799.97;5094644;28;20028;-85
2021/12/20 07:44:33;;;;;;;15.30;2.70;;;;;;;4.07;100.00;102808.66;5094751;28;20367;-85
2021/12/20 07:46:59;;;;;;;16.73;3.50;;;;;;;4.01;98.46;102803.28;5093583;28;20383;-85
2021/12/20 07:49:24;;;;;;;17.17;3.35;;;;;;;4.06;100.00;102801.75;5094541;28;20111;-84
2021/12/20 07:51:51;;;;;;;23.30;3.83;;;;;;;4.06;100.00;102810.38;5100456;28;20055;-85
2021/12/20 07:54:17;;;;;;;15.38;3.60;;;;;;;4.06;100.00;102806.91;5114252;28;20030;-85
2021/12/20 07:56:43;;;;;;;17.73;3.78;;;;;;;4.07;100.00;102814.69;5113731;27;20023;-85
2021/12/20 07:59:08;;;;;;;18.88;3.42;;;;;;;4.06;100.00;102812.09;5114883;28;20378;-85
2021/12/20 08:01:34;;;;;;;17.90;3.72;;;;;;;4.07;100.00;102829.31;5113635;28;20108;-85
2021/12/20 08:04:01;;;;;;;21.17;3.70;;;;;;;4.02;99.23;102811.06;5114304;28;20027;-84
2021/12/20 08:06:26;;;;;;;21.02;4.22;;;;;;;4.09;99.39;102817.34;5112774;28;20094;-84
2021/12/20 08:08:51;;;;;;;18.52;3.63;;;;;;;4.06;99.92;102810.38;5114192;28;20589;-85
2021/12/20 08:11:16;;;;;;;23.38;3.85;;;;;;;4.08;99.33;102806.13;5114687;28;20034;-85
2021/12/20 08:13:45;;;;;;;16.83;3.70;;;;;;;4.12;99.41;102815.75;5112575;28;20050;-85
2021/12/20 08:16:19;;;;;;;17.35;3.58;;;;;;;4.18;100.00;102826.25;5113706;28;20024;-85
2021/12/20 08:18:44;;;;;;;25.63;4.65;;;;;;;4.17;100.00;102821.06;5113998;28;20032;-84
2021/12/20 08:21:10;;;;;;;20.17;3.92;;;;;;;4.19;100.00;102814.25;5113534;28;20028;-85
2021/12/20 08:23:37;;;;;;;24.80;4.18;;;;;;;4.18;100.00;102818.50;5112704;28;20121;-84
2021/12/20 08:26:03;;;;;;;18.23;3.97;;;;;;;4.22;100.00;102817.81;5114056;28;20383;-85
2021/12/20 08:28:29;;;;;;;24.83;4.35;;;;;;;4.28;100.00;102834.31;5113181;28;20110;-85
2021/12/20 08:30:54;;;;;;;17.70;4.35;;;;;;;4.28;100.00;102822.28;5113786;28;20502;-85
2021/12/20 08:33:19;;;;;;;15.23;3.33;;;;;;;4.32;100.00;102815.56;5114493;28;20076;-85
2021/12/20 08:35:49;;;;;;;18.17;4.13;;;;;;;4.35;100.00;102828.53;5112803;28;20027;-85
2021/12/20 08:38:17;;;;;;;17.83;3.75;;;;;;;4.37;100.00;102830.34;5113350;28;20164;-85
2021/12/20 08:40:43;;;;;;;19.55;3.50;;;;;;;4.37;100.00;102830.34;5113452;28;20020;-85
2021/12/20 08:43:08;;;;;;;18.40;4.47;;;;;;;4.42;99.66;102827.94;5113275;28;20020;-85
2021/12/20 08:45:34;;;;;;;13.15;3.63;;;;;;;4.44;98.87;102828.84;5108834;28;20382;-85
2021/12/20 08:48:01;;;;;;;17.08;4.30;;;;;;;4.46;98.73;102828.09;5093020;28;20088;-85
2021/12/20 08:50:27;;;;;;;21.27;4.18;;;;;;;4.52;97.67;102834.28;5092528;28;20069;-84
2021/12/20 08:52:53;;;;;;;20.48;3.83;;;;;;;4.55;96.42;102834.41;5093255;28;20400;-85
2021/12/20 08:55:20;;;;;;;15.35;3.40;;;;;;;4.57;93.63;102835.31;5093341;28;20024;-85
2021/12/20 08:57:45;;;;;;;17.42;3.30;;;;;;;4.64;97.44;102834.69;5091868;28;20032;-85
2021/12/20 09:00:15;;;;;;;16.65;3.25;;;;;;;4.66;96.28;102833.91;5102717;28;20046;-85
2021/12/20 09:02:41;;;;;;;15.73;3.38;;;;;;;4.66;96.09;102828.75;5112230;28;20087;-85
2021/12/20 09:05:06;;;;;;;14.52;3.30;;;;;;;4.69;92.62;102836.59;5113645;28;20107;-85
2021/12/20 09:07:32;;;;;;;18.27;3.08;;;;;;;4.73;94.58;102829.81;5112266;28;20012;-85
2021/12/20 09:09:57;;;;;;;14.40;2.78;;;;;;;4.75;93.52;102828.19;5112315;28;20050;-85
2021/12/20 09:12:22;;;;;;;17.63;2.55;;;;;;;4.79;95.12;102824.84;5113366;28;20395;-85
2021/12/20 09:14:48;;;;;;;14.10;3.33;;;;;;;4.83;92.71;102836.16;5111311;28;20019;-85
2021/12/20 09:17:15;;;;;;;17.02;3.13;;;;;;;4.91;95.42;102840.75;5111164;28;20506;-86
2021/12/20 09:19:40;;;;;;;15.93;3.65;;;;;;;4.99;95.71;102842.69;5112875;28;20110;-85
2021/12/20 09:22:06;;;;;;;9.20;3.30;;;;;;;5.01;94.48;102846.22;5113106;28;20110;-86
2021/12/20 09:24:35;;;;;;;15.82;4.53;;;;;;;4.96;92.95;102833.13;5112402;28;20110;-85
2021/12/20 09:27:02;;;;;;;14.88;3.67;;;;;;;5.07;93.01;102841.25;5112516;28;20050;-85
2021/12/20 09:29:28;;;;;;;17.70;4.30;;;;;;;5.10;92.06;102844.81;5111181;28;20028;-85
2021/12/20 09:31:53;;;;;;;21.70;3.45;;;;;;;5.13;90.47;102844.91;5112226;28;20030;-85
2021/12/20 09:34:19;;;;;;;18.45;3.17;;;;;;;5.16;89.72;102844.97;5112895;28;20065;-85
2021/12/20 09:36:44;;;;;;;17.40;4.07;;;;;;;5.18;87.85;102854.50;5112507;28;20058;-86
2021/12/20 09:39:11;;;;;;;12.35;2.83;;;;;;;5.16;87.86;102851.84;5109957;28;20370;-85
2021/12/20 09:44:10;;;;;;;14.88;2.63;;;;;;;5.22;86.14;102856.34;5113071;28;20027;-85
2021/12/20 09:46:37;;;;;;;14.85;3.25;;;;;;;5.23;86.18;102856.41;5111999;28;20027;-86
2021/12/20 09:49:04;;;;;;;15.07;2.88;;;;;;;5.21;88.24;102847.72;5112852;28;20031;-85
2021/12/20 09:51:29;;;;;;;11.25;2.78;;;;;;;5.26;87.19;102853.00;5112478;28;20106;-85
2021/12/20 09:53:55;;;;;;;18.58;3.30;;;;;;;5.25;83.71;102859.91;5110546;28;20442;-85
2021/12/20 09:56:24;;;;;;;12.98;3.53;;;;;;;5.32;85.59;102868.72;5112603;28;20034;-86
2021/12/20 09:58:51;;;;;;;15.18;2.80;;;;;;;5.37;85.07;102872.34;5112022;28;20038;-85
2021/12/20 10:01:19;;;;;;;16.38;2.80;;;;;;;5.43;86.92;102869.03;5112554;28;20035;-86
2021/12/20 10:03:44;;;;;;;18.38;3.30;;;;;;;5.45;87.33;102859.63;5111858;28;20506;-85
2021/12/20 10:06:09;;;;;;;14.52;3.22;;;;;;;5.51;85.27;102854.63;5111744;28;20135;-85
2021/12/20 10:08:37;;;;;;;16.08;3.00;;;;;;;5.55;87.41;102864.22;5110765;28;20360;-85
2021/12/20 10:11:17;;;;;;;15.63;3.00;;;;;;;5.56;86.08;102853.94;5110634;28;20036;-86
2021/12/20 10:13:42;;;;;;;14.15;3.30;;;;;;;5.59;84.64;102850.53;5111234;28;20068;-86
2021/12/20 10:16:22;;;;;;;17.98;3.67;;;;;;;5.65;86.02;102861.06;5112452;28;20062;-85
2021/12/20 10:18:48;;;;;;;22.70;3.47;;;;;;;5.66;83.42;102864.53;5111661;28;20049;-85
2021/12/20 10:21:15;;;;;;;17.92;3.33;;;;;;;5.68;84.90;102866.34;5111394;28;20024;-85
2021/12/20 10:23:44;;;;;;;20.55;4.13;;;;;;;5.71;85.96;102863.84;5111933;28;20030;-85
2021/12/20 10:26:12;;;;;;;15.20;3.38;;;;;;;5.73;86.08;102863.91;5111030;28;20513;-84
2021/12/20 10:28:39;;;;;;;16.95;3.40;;;;;;;5.77;85.35;102865.75;5110693;28;20075;-85
2021/12/20 10:31:25;;;;;;;17.95;3.95;;;;;;;5.77;85.52;102853.69;5112167;28;20383;-85
2021/12/20 10:33:59;;;;;;;15.57;3.42;;;;;;;5.80;85.41;102864.13;5111915;28;20015;-85
2021/12/20 10:36:25;;;;;;;21.17;3.75;;;;;;;5.83;85.35;102858.16;5112040;28;20063;-85
2021/12/20 10:38:57;;;;;;;19.85;3.72;;;;;;;5.85;86.17;102859.06;5110083;28;20102;-85
2021/12/20 10:41:34;;;;;;;10.25;3.00;;;;;;;5.82;86.64;102852.09;5111494;28;20024;-85
2021/12/20 10:44:03;;;;;;;14.30;3.28;;;;;;;5.90;87.71;102857.50;5109698;28;20027;-87
2021/12/20 10:46:36;;;;;;;19.70;4.50;;;;;;;5.85;85.51;102854.78;5112043;28;20031;-85
2021/12/20 10:49:02;;;;;;;20.25;4.82;;;;;;;5.92;85.17;102863.59;5111133;28;20057;-85
2021/12/20 10:51:31;;;;;;;16.52;3.78;;;;;;;5.87;83.68;102860.00;5111864;28;20055;-85
2021/12/20 10:54:01;;;;;;;17.15;3.90;;;;;;;5.81;83.23;102855.50;5111667;28;20455;-85
2021/12/20 10:56:29;;;;;;;17.92;3.58;;;;;;;5.86;84.22;102855.66;5110333;28;20032;-85
2021/12/20 10:58:56;;;;;;;18.42;3.80;;;;;;;5.89;83.83;102857.47;5091119;28;20024;-85
2021/12/20 11:04:22;;;;;;;18.85;3.65;;;;;;;5.89;84.18;102854.88;5091077;28;20089;-85
2021/12/20 11:09:04;;;;;;;19.98;3.78;;;;;;;5.92;82.93;102852.34;5091109;28;20028;-85
2021/12/20 11:09:47;;;;;;;16.42;3.60;;;;;;;5.95;84.10;102844.69;5090250;28;20490;-86
2021/12/20 11:12:24;;;;;;;16.63;3.63;;;;;;;5.97;83.03;102850.81;5091346;28;20032;-85
2021/12/20 11:14:52;;;;;;;12.80;3.55;;;;;;;5.97;82.56;102850.81;5091266;28;20103;-86
2021/12/20 11:17:20;;;;;;;18.48;4.07;;;;;;;5.98;83.22;102844.78;5109753;28;20042;-85
2021/12/20 11:19:47;;;;;;;18.38;4.20;;;;;;;6.00;84.52;102838.81;5111209;28;20098;-86
2021/12/20 11:22:21;;;;;;;15.48;3.70;;;;;;;6.08;84.38;102844.19;5111778;28;20463;-86
2021/12/20 11:24:51;;;;;;;16.42;3.83;;;;;;;6.12;83.76;102842.59;5110499;28;20027;-86
2021/12/20 11:27:22;;;;;;;14.15;3.45;;;;;;;6.12;84.24;102843.47;5111371;28;20435;-85
2021/12/20 11:29:49;;;;;;;19.00;4.13;;;;;;;6.15;82.93;102838.38;5110015;28;20115;-85
2021/12/20 11:32:16;;;;;;;18.05;3.88;;;;;;;6.18;83.41;102848.81;5113944;28;20097;-85